Terminal Aerodrome Forecast
Issued by NWS Milwaukee/Sullivan, WI

Home | Current Version | Previous Version | Text Only | Print | Product List | Glossary On
Versions: 1 2 3 4 5 6 7 8 9 10 11 12 13 14 15 16 17 18 19 20 21 22 23 24 25 26 27 28 29 30 31 32 33 34 35 36 37 38 39 40 41 42 43 44 45 46 47
000
FTUS43 KMKX 211454 AAA
TAFMSN
TAF AMD
KMSN 211454Z 2115/2212 17007KT P6SM FEW150
     FM211800 18010KT P6SM SCT150
     FM220200 18011G19KT P6SM SCT040 OVC150
     FM220600 20010G17KT P6SM -FZRA OVC030
     FM220900 20009KT 6SM -FZRA OVC020
     FM221100 20008KT 3SM -FZRA BR OVC010=

USA.gov is the U.S. government's official web portal to all federal, state and local government web resources and services.